Time;durP1;ratioP1;P1;durP2;ratioP2;P2;SDS_P1;SDS_P2;PMS_P1;PMS_P2;Temp;Humidity;BMP_temperature;BMP_pressure;BME280_temperature;BME280_humidity;BME280_pressure;Samples;Min_cycle;Max_cycle;Signal;HPM_P1;HPM_P2
2022/01/10 00:00:36;;;;;;;;;;;6.50;51.50;;;;;;5056406;28;20432;-68
2022/01/10 00:03:02;;;;;;;;;;;6.60;50.80;;;;;;5056523;28;19916;-68
2022/01/10 00:05:28;;;;;;;;;;;6.60;50.90;;;;;;5056361;28;19909;-69
2022/01/10 00:07:53;;;;;;;;;;;6.70;51.10;;;;;;5056175;28;19932;-68
2022/01/10 00:10:19;;;;;;;;;;;6.60;51.20;;;;;;5056576;28;19916;-68
2022/01/10 00:12:45;;;;;;;;;;;6.50;51.60;;;;;;5056140;28;20011;-70
2022/01/10 00:15:10;;;;;;;;;;;6.40;52.60;;;;;;5056184;28;19921;-69
2022/01/10 00:17:38;;;;;;;;;;;6.40;52.20;;;;;;5056287;28;19908;-69
2022/01/10 00:20:08;;;;;;;;;;;6.50;52.10;;;;;;5056321;28;19909;-68
2022/01/10 00:22:34;;;;;;;;;;;6.50;52.20;;;;;;5056034;28;20384;-68
2022/01/10 00:25:00;;;;;;;;;;;6.40;52.60;;;;;;5055937;28;19913;-70
2022/01/10 00:27:26;;;;;;;;;;;6.50;52.70;;;;;;5056220;28;19932;-69
2022/01/10 00:29:51;;;;;;;;;;;6.60;52.50;;;;;;5056067;28;19909;-69
2022/01/10 00:32:17;;;;;;;;;;;6.60;52.40;;;;;;5055793;28;19909;-69
2022/01/10 00:34:43;;;;;;;;;;;6.70;52.50;;;;;;5037716;28;19960;-69
2022/01/10 00:37:08;;;;;;;;;;;6.70;52.50;;;;;;5055766;28;19962;-69
2022/01/10 00:39:34;;;;;;;;;;;6.70;52.50;;;;;;5055680;28;19931;-69
2022/01/10 00:42:00;;;;;;;;;;;6.60;52.80;;;;;;5055777;28;19920;-70
2022/01/10 00:44:27;;;;;;;;;;;6.60;53.10;;;;;;5055425;28;19944;-68
2022/01/10 00:46:53;;;;;;;;;;;6.50;53.40;;;;;;5055306;28;20406;-68
2022/01/10 00:49:18;;;;;;;;;;;6.40;53.90;;;;;;5055587;28;19909;-66
2022/01/10 00:51:44;;;;;;;;;;;6.50;53.60;;;;;;5055355;28;19919;-69
2022/01/10 00:54:09;;;;;;;;;;;6.50;53.70;;;;;;5055549;28;19920;-69
2022/01/10 00:56:35;;;;;;;;;;;6.50;53.60;;;;;;5055254;28;19909;-68
2022/01/10 00:59:00;;;;;;;;;;;6.40;54.00;;;;;;5055456;28;19908;-70
2022/01/10 01:01:26;;;;;;;;;;;6.40;54.30;;;;;;5055418;28;19916;-69
2022/01/10 01:03:51;;;;;;;;;;;6.40;54.10;;;;;;5055248;28;19909;-69
2022/01/10 01:06:17;;;;;;;;;;;6.30;54.20;;;;;;5055462;28;19948;-70
2022/01/10 01:08:44;;;;;;;;;;;6.20;54.60;;;;;;5055107;28;20276;-68
2022/01/10 01:11:37;;;;;;;;;;;6.20;54.90;;;;;;5055267;28;19909;-68
2022/01/10 01:14:07;;;;;;;;;;;6.20;54.90;;;;;;5054643;28;20499;-66
2022/01/10 01:19:26;;;;;;;;;;;6.20;55.00;;;;;;5055000;28;20003;-69
2022/01/10 01:24:33;;;;;;;;;;;6.10;55.40;;;;;;5054866;28;19997;-70
2022/01/10 01:26:58;;;;;;;;;;;6.00;55.40;;;;;;5054780;28;19909;-69
2022/01/10 01:29:26;;;;;;;;;;;6.10;55.60;;;;;;5054788;28;19909;-69
2022/01/10 01:31:51;;;;;;;;;;;6.10;55.70;;;;;;5054737;28;19909;-66
2022/01/10 01:34:18;;;;;;;;;;;6.00;56.00;;;;;;5054324;28;19924;-67
2022/01/10 01:36:50;;;;;;;;;;;5.90;56.10;;;;;;5054630;28;19909;-67
2022/01/10 01:39:21;;;;;;;;;;;5.80;56.60;;;;;;5054651;28;19912;-67
2022/01/10 01:41:47;;;;;;;;;;;5.80;56.90;;;;;;5054474;28;19981;-67
2022/01/10 01:44:13;;;;;;;;;;;5.80;56.90;;;;;;5054313;28;19967;-67
2022/01/10 01:46:39;;;;;;;;;;;5.80;57.30;;;;;;5054192;28;19917;-68
2022/01/10 01:49:05;;;;;;;;;;;5.70;57.40;;;;;;5054681;28;20369;-69
2022/01/10 01:51:31;;;;;;;;;;;5.70;57.60;;;;;;5054139;28;19913;-68
2022/01/10 01:53:57;;;;;;;;;;;5.80;57.40;;;;;;5054179;28;19924;-67
2022/01/10 01:56:23;;;;;;;;;;;5.90;57.30;;;;;;5054146;28;19952;-68
2022/01/10 01:58:51;;;;;;;;;;;5.90;57.30;;;;;;5053741;28;19909;-67
2022/01/10 02:01:18;;;;;;;;;;;5.80;57.40;;;;;;5053972;28;19932;-67
2022/01/10 02:03:45;;;;;;;;;;;5.80;57.70;;;;;;5053904;28;19916;-66
2022/01/10 02:06:10;;;;;;;;;;;5.90;57.50;;;;;;5054107;28;19913;-68
2022/01/10 02:08:37;;;;;;;;;;;6.00;57.40;;;;;;5054176;28;19944;-67
2022/01/10 02:11:03;;;;;;;;;;;5.90;57.60;;;;;;5053741;28;20003;-66
2022/01/10 02:13:28;;;;;;;;;;;5.80;57.80;;;;;;5053772;28;20368;-67
2022/01/10 02:16:02;;;;;;;;;;;5.70;58.10;;;;;;5053800;28;19913;-67
2022/01/10 02:18:28;;;;;;;;;;;5.70;58.20;;;;;;5054078;28;19909;-69
2022/01/10 02:20:54;;;;;;;;;;;5.70;58.30;;;;;;5035865;28;19923;-67
2022/01/10 02:23:20;;;;;;;;;;;5.70;58.50;;;;;;5053702;28;20008;-68
2022/01/10 02:25:46;;;;;;;;;;;5.60;58.50;;;;;;5053707;28;19916;-67
2022/01/10 02:28:12;;;;;;;;;;;5.60;58.50;;;;;;5053549;28;19932;-67
2022/01/10 02:30:38;;;;;;;;;;;5.60;58.70;;;;;;5053533;28;19913;-66
2022/01/10 02:33:04;;;;;;;;;;;5.70;58.50;;;;;;5053807;28;20369;-66
2022/01/10 02:35:34;;;;;;;;;;;5.60;58.50;;;;;;5053369;28;19917;-68
2022/01/10 02:38:01;;;;;;;;;;;5.60;58.60;;;;;;5053443;28;19920;-66
2022/01/10 02:40:29;;;;;;;;;;;5.60;58.80;;;;;;5053188;28;19916;-67
2022/01/10 02:42:55;;;;;;;;;;;5.60;58.90;;;;;;5053317;28;19927;-68
2022/01/10 02:45:20;;;;;;;;;;;5.50;59.20;;;;;;5053163;28;20360;-67
2022/01/10 02:47:47;;;;;;;;;;;5.50;59.10;;;;;;5053320;28;20337;-67
2022/01/10 02:50:13;;;;;;;;;;;5.60;59.00;;;;;;5053341;28;19909;-68
2022/01/10 02:52:39;;;;;;;;;;;5.70;58.70;;;;;;5053256;28;19915;-67
2022/01/10 02:55:05;;;;;;;;;;;5.70;58.50;;;;;;5053136;28;19920;-67
2022/01/10 02:57:32;;;;;;;;;;;5.70;58.50;;;;;;5053183;28;20334;-68
2022/01/10 02:59:58;;;;;;;;;;;5.70;58.70;;;;;;5053350;28;19943;-67
2022/01/10 03:02:29;;;;;;;;;;;5.60;58.80;;;;;;5053387;28;19916;-68
2022/01/10 03:04:54;;;;;;;;;;;5.70;58.80;;;;;;5052887;28;19909;-66
2022/01/10 03:07:23;;;;;;;;;;;5.70;58.80;;;;;;5053452;28;19913;-68
2022/01/10 03:09:50;;;;;;;;;;;5.60;58.90;;;;;;5052826;28;20300;-68
2022/01/10 03:12:15;;;;;;;;;;;5.70;58.90;;;;;;5053161;28;19909;-68
2022/01/10 03:14:41;;;;;;;;;;;5.70;59.20;;;;;;5052907;28;20341;-68
2022/01/10 03:17:08;;;;;;;;;;;5.60;59.30;;;;;;5052891;28;20046;-67
2022/01/10 03:19:34;;;;;;;;;;;5.50;59.60;;;;;;5052932;28;20356;-66
2022/01/10 03:22:00;;;;;;;;;;;5.60;59.70;;;;;;5052925;28;19912;-67
2022/01/10 03:24:26;;;;;;;;;;;5.50;59.60;;;;;;5052955;28;19909;-67
2022/01/10 03:26:51;;;;;;;;;;;5.50;59.80;;;;;;5052924;28;19909;-66
2022/01/10 03:29:17;;;;;;;;;;;5.50;59.80;;;;;;5052894;28;19909;-66
2022/01/10 03:31:42;;;;;;;;;;;5.50;60.10;;;;;;5052955;28;19920;-67
2022/01/10 03:34:11;;;;;;;;;;;5.40;60.40;;;;;;5044542;28;19920;-67
2022/01/10 03:36:36;;;;;;;;;;;5.40;60.40;;;;;;5047940;28;19913;-68
2022/01/10 03:39:02;;;;;;;;;;;5.40;60.50;;;;;;5052944;28;20237;-68
2022/01/10 03:41:28;;;;;;;;;;;5.50;60.60;;;;;;5052642;28;19920;-69
2022/01/10 03:43:54;;;;;;;;;;;5.40;60.70;;;;;;5052522;28;20007;-68
2022/01/10 03:46:19;;;;;;;;;;;5.40;60.90;;;;;;5034820;28;19916;-67
2022/01/10 03:48:45;;;;;;;;;;;5.40;61.10;;;;;;5052654;28;19919;-68
2022/01/10 03:51:11;;;;;;;;;;;5.30;61.40;;;;;;5052847;28;19920;-69
2022/01/10 03:53:36;;;;;;;;;;;5.40;61.10;;;;;;5052497;28;19917;-68
2022/01/10 03:56:02;;;;;;;;;;;5.40;61.50;;;;;;5052710;28;19909;-67
2022/01/10 03:58:29;;;;;;;;;;;5.40;61.10;;;;;;5052539;28;19909;-68
2022/01/10 04:00:54;;;;;;;;;;;5.60;60.50;;;;;;5052667;28;19909;-70
2022/01/10 04:03:20;;;;;;;;;;;5.60;60.30;;;;;;5034846;28;19913;-69
2022/01/10 04:05:46;;;;;;;;;;;5.60;60.40;;;;;;5052356;28;20003;-67
2022/01/10 04:08:12;;;;;;;;;;;5.60;60.40;;;;;;5052427;28;19925;-68
2022/01/10 04:10:38;;;;;;;;;;;5.50;60.80;;;;;;5052335;28;19931;-68
2022/01/10 04:13:03;;;;;;;;;;;5.50;61.70;;;;;;5052189;28;20373;-69
2022/01/10 04:15:29;;;;;;;;;;;5.50;60.90;;;;;;5052412;28;19966;-67
2022/01/10 04:17:56;;;;;;;;;;;5.50;61.00;;;;;;5052319;28;20007;-69
2022/01/10 04:20:23;;;;;;;;;;;5.50;61.10;;;;;;5053313;28;19909;-67
2022/01/10 04:22:49;;;;;;;;;;;5.50;61.10;;;;;;5056170;28;19909;-68
2022/01/10 04:25:14;;;;;;;;;;;5.50;61.10;;;;;;5055658;28;20360;-66
2022/01/10 04:27:40;;;;;;;;;;;5.50;61.10;;;;;;5055963;28;20341;-69
2022/01/10 04:30:06;;;;;;;;;;;5.60;61.20;;;;;;5055941;28;20385;-69
2022/01/10 04:32:32;;;;;;;;;;;5.60;61.30;;;;;;5055857;28;20427;-67
2022/01/10 04:34:58;;;;;;;;;;;5.60;61.30;;;;;;5055568;28;19921;-69
2022/01/10 04:37:24;;;;;;;;;;;5.60;61.30;;;;;;5055740;28;19916;-69
2022/01/10 04:39:49;;;;;;;;;;;5.70;60.90;;;;;;5055780;28;19923;-70
2022/01/10 04:42:15;;;;;;;;;;;5.70;61.20;;;;;;5055526;28;19913;-69
2022/01/10 04:44:41;;;;;;;;;;;5.60;61.50;;;;;;5055291;28;19913;-70
2022/01/10 04:47:07;;;;;;;;;;;5.70;61.20;;;;;;5055646;28;20272;-69
2022/01/10 04:49:54;;;;;;;;;;;5.70;61.10;;;;;;5055475;28;19908;-69
2022/01/10 04:52:18;;;;;;;;;;;5.80;60.90;;;;;;5055328;28;19987;-69
2022/01/10 04:54:44;;;;;;;;;;;5.80;61.10;;;;;;5055124;28;20432;-68
2022/01/10 04:57:09;;;;;;;;;;;5.80;61.10;;;;;;5055418;28;19913;-68
2022/01/10 04:59:35;;;;;;;;;;;5.70;61.10;;;;;;5055439;28;19920;-70
2022/01/10 05:02:01;;;;;;;;;;;5.60;61.60;;;;;;5055218;28;19916;-71
2022/01/10 05:04:26;;;;;;;;;;;5.60;62.00;;;;;;5055249;28;20372;-66
2022/01/10 05:06:52;;;;;;;;;;;5.50;62.20;;;;;;5054992;28;20007;-67
2022/01/10 05:09:17;;;;;;;;;;;5.50;62.30;;;;;;5055569;28;19915;-68
2022/01/10 05:11:44;;;;;;;;;;;5.50;62.20;;;;;;5055107;28;19913;-69
2022/01/10 05:14:10;;;;;;;;;;;5.60;62.20;;;;;;5055038;28;19936;-69
2022/01/10 05:16:36;;;;;;;;;;;5.60;62.10;;;;;;5055136;28;19908;-68
2022/01/10 05:19:02;;;;;;;;;;;5.60;62.10;;;;;;5054938;28;20288;-69
2022/01/10 05:21:27;;;;;;;;;;;5.60;62.00;;;;;;5054766;28;19955;-69
2022/01/10 05:23:53;;;;;;;;;;;5.60;62.00;;;;;;5055042;28;19908;-69
2022/01/10 05:26:18;;;;;;;;;;;5.70;61.70;;;;;;5054870;28;20369;-70
2022/01/10 05:28:44;;;;;;;;;;;5.70;61.60;;;;;;5054630;28;19920;-70
2022/01/10 05:31:09;;;;;;;;;;;5.60;61.90;;;;;;5054328;28;19913;-69
2022/01/10 05:33:35;;;;;;;;;;;5.70;62.10;;;;;;5053917;28;20386;-68
2022/01/10 05:36:01;;;;;;;;;;;5.70;61.90;;;;;;5054485;28;19956;-69
2022/01/10 05:38:26;;;;;;;;;;;5.70;62.00;;;;;;5054301;28;19909;-68
2022/01/10 05:40:52;;;;;;;;;;;5.60;62.20;;;;;;5054630;28;19992;-67
2022/01/10 05:43:17;;;;;;;;;;;5.60;62.30;;;;;;5054192;28;19978;-68
2022/01/10 05:45:44;;;;;;;;;;;5.70;62.30;;;;;;5054335;28;19912;-68
2022/01/10 05:48:13;;;;;;;;;;;5.90;61.80;;;;;;5054290;28;19916;-69
2022/01/10 05:50:41;;;;;;;;;;;5.80;61.40;;;;;;5054172;28;19909;-69
2022/01/10 05:53:07;;;;;;;;;;;5.90;61.60;;;;;;5054556;28;19955;-69
2022/01/10 05:55:35;;;;;;;;;;;5.90;61.60;;;;;;5054528;28;19913;-69
2022/01/10 05:58:01;;;;;;;;;;;5.80;61.30;;;;;;5054297;28;19913;-69
2022/01/10 06:00:26;;;;;;;;;;;5.80;61.90;;;;;;5054272;28;19986;-69
2022/01/10 06:02:52;;;;;;;;;;;5.80;61.50;;;;;;5054022;28;19909;-69
2022/01/10 06:05:18;;;;;;;;;;;5.80;61.90;;;;;;5036120;28;20395;-69
2022/01/10 06:07:44;;;;;;;;;;;5.70;61.90;;;;;;5054053;28;19928;-68
2022/01/10 06:10:10;;;;;;;;;;;5.70;62.10;;;;;;5054320;28;19968;-68
2022/01/10 06:12:35;;;;;;;;;;;5.60;62.20;;;;;;5053941;28;19913;-66
2022/01/10 06:15:01;;;;;;;;;;;5.60;62.50;;;;;;5053554;28;20003;-69
2022/01/10 06:17:26;;;;;;;;;;;5.70;62.00;;;;;;5054133;28;20353;-68
2022/01/10 06:19:52;;;;;;;;;;;5.60;61.60;;;;;;5054237;28;19962;-68
2022/01/10 06:22:18;;;;;;;;;;;5.70;61.50;;;;;;5054371;28;19932;-67
2022/01/10 06:24:43;;;;;;;;;;;5.70;61.40;;;;;;5053797;28;19999;-68
2022/01/10 06:27:09;;;;;;;;;;;5.80;60.80;;;;;;5054087;28;19962;-69
2022/01/10 06:29:34;;;;;;;;;;;5.80;60.40;;;;;;5054222;28;20372;-69
2022/01/10 06:32:00;;;;;;;;;;;5.80;60.30;;;;;;5054273;28;20361;-68
2022/01/10 06:34:25;;;;;;;;;;;5.80;60.40;;;;;;5053898;28;20533;-68
2022/01/10 06:36:51;;;;;;;;;;;5.80;60.20;;;;;;5054258;28;19908;-68
2022/01/10 06:39:16;;;;;;;;;;;5.80;60.10;;;;;;5054195;28;19915;-68
2022/01/10 06:41:42;;;;;;;;;;;5.70;60.30;;;;;;5054036;28;19921;-68
2022/01/10 06:44:08;;;;;;;;;;;5.80;60.30;;;;;;5053542;28;19975;-68
2022/01/10 06:46:33;;;;;;;;;;;5.80;60.40;;;;;;5054234;28;20008;-67
2022/01/10 06:48:59;;;;;;;;;;;5.80;60.10;;;;;;5053648;28;20247;-67
2022/01/10 06:51:24;;;;;;;;;;;5.80;60.40;;;;;;5053641;28;19908;-67
2022/01/10 06:53:50;;;;;;;;;;;5.80;60.60;;;;;;5053367;28;19932;-68
2022/01/10 06:56:15;;;;;;;;;;;5.80;60.00;;;;;;5054082;28;19918;-67
2022/01/10 06:58:41;;;;;;;;;;;5.90;59.90;;;;;;5053752;28;19909;-66
2022/01/10 07:01:07;;;;;;;;;;;6.00;59.70;;;;;;5054084;28;19951;-71
2022/01/10 07:03:32;;;;;;;;;;;6.40;68.30;;;;;;5060354;28;19909;-66
2022/01/10 07:05:58;;;;;;;;;;;6.70;61.50;;;;;;5066414;28;19909;-73
2022/01/10 07:08:23;;;;;;;;;;;7.10;61.40;;;;;;5066858;28;19909;-70
2022/01/10 07:10:49;;;;;;;;;;;7.30;59.20;;;;;;5056129;28;19908;-67
2022/01/10 07:13:14;;;;;;;;;;;7.50;63.30;;;;;;5054120;28;19909;-68
2022/01/10 07:15:40;;;;;;;;;;;7.80;62.10;;;;;;5053347;28;19917;-71
2022/01/10 07:18:06;;;;;;;;;;;7.70;60.00;;;;;;5052948;28;19909;-65
2022/01/10 07:20:33;;;;;;;;;;;7.70;55.60;;;;;;5053244;28;20250;-67
2022/01/10 07:22:59;;;;;;;;;;;7.40;55.40;;;;;;5053058;28;19996;-66
2022/01/10 07:25:24;;;;;;;;;;;7.00;56.30;;;;;;5052450;28;20035;-65
2022/01/10 07:27:50;;;;;;;;;;;6.80;57.10;;;;;;5053026;28;19919;-65
2022/01/10 07:30:15;;;;;;;;;;;6.60;57.50;;;;;;5051913;28;20280;-67
2022/01/10 07:32:41;;;;;;;;;;;6.60;57.90;;;;;;5052475;28;19982;-67
2022/01/10 07:35:07;;;;;;;;;;;6.60;57.70;;;;;;5049852;28;20253;-68
2022/01/10 07:37:32;;;;;;;;;;;6.60;57.80;;;;;;5049763;28;19909;-70
2022/01/10 07:39:58;;;;;;;;;;;6.70;57.30;;;;;;5052270;28;20360;-67
2022/01/10 07:42:24;;;;;;;;;;;6.80;56.80;;;;;;5063155;28;19967;-64
2022/01/10 07:44:49;;;;;;;;;;;6.90;56.90;;;;;;5037203;28;19917;-67
2022/01/10 07:47:15;;;;;;;;;;;6.80;56.70;;;;;;5046951;28;19909;-70
2022/01/10 07:49:40;;;;;;;;;;;6.80;56.50;;;;;;5052045;28;19912;-68
2022/01/10 07:52:06;;;;;;;;;;;6.80;56.80;;;;;;5052226;28;19963;-69
2022/01/10 07:54:32;;;;;;;;;;;6.80;56.70;;;;;;5052700;28;19956;-67
2022/01/10 07:56:58;;;;;;;;;;;6.90;56.80;;;;;;5056620;28;19952;-64
2022/01/10 07:59:24;;;;;;;;;;;6.80;56.30;;;;;;5057060;28;19908;-66
2022/01/10 08:01:50;;;;;;;;;;;6.90;56.60;;;;;;5056824;28;19909;-71
2022/01/10 08:04:16;;;;;;;;;;;6.80;56.30;;;;;;5058150;28;20023;-70
2022/01/10 08:06:42;;;;;;;;;;;6.90;56.20;;;;;;5072245;28;19909;-73
2022/01/10 08:09:08;;;;;;;;;;;6.90;55.50;;;;;;5075460;28;19981;-65
2022/01/10 08:11:33;;;;;;;;;;;7.10;55.10;;;;;;5075116;28;19996;-70
2022/01/10 08:14:00;;;;;;;;;;;7.20;54.70;;;;;;5067541;28;19952;-70
2022/01/10 08:16:25;;;;;;;;;;;7.30;54.80;;;;;;5067897;28;19909;-67
2022/01/10 08:18:51;;;;;;;;;;;7.30;54.40;;;;;;5056824;28;19916;-69
2022/01/10 08:21:17;;;;;;;;;;;7.30;54.10;;;;;;5056252;28;20000;-69
2022/01/10 08:23:42;;;;;;;;;;;7.40;54.00;;;;;;5056111;28;20410;-68
2022/01/10 08:26:08;;;;;;;;;;;7.50;54.20;;;;;;5056398;28;19952;-68
2022/01/10 08:28:37;;;;;;;;;;;7.50;53.90;;;;;;5055941;28;19909;-69
2022/01/10 08:31:03;;;;;;;;;;;7.60;53.80;;;;;;5055930;28;19955;-70
2022/01/10 08:33:29;;;;;;;;;;;7.70;53.70;;;;;;5055705;28;19917;-70
2022/01/10 08:35:54;;;;;;;;;;;7.80;52.90;;;;;;5055771;28;19924;-67
2022/01/10 08:38:20;;;;;;;;;;;7.80;52.60;;;;;;5055566;28;20029;-65
2022/01/10 08:40:46;;;;;;;;;;;8.00;52.40;;;;;;5055741;28;19962;-65
2022/01/10 08:43:12;;;;;;;;;;;8.00;52.60;;;;;;5055513;28;19921;-62
2022/01/10 08:45:38;;;;;;;;;;;8.00;52.70;;;;;;5049347;28;20022;-65
2022/01/10 08:48:05;;;;;;;;;;;7.90;53.00;;;;;;5050508;28;19913;-68
2022/01/10 08:50:30;;;;;;;;;;;7.70;53.30;;;;;;5055287;28;19919;-65
2022/01/10 08:52:56;;;;;;;;;;;7.80;53.20;;;;;;5061252;28;19912;-67
2022/01/10 08:55:21;;;;;;;;;;;7.90;53.10;;;;;;5075192;28;20010;-67
2022/01/10 08:57:47;;;;;;;;;;;7.90;52.90;;;;;;5074777;28;19916;-66
2022/01/10 09:00:13;;;;;;;;;;;7.90;52.80;;;;;;5075197;28;19908;-70
2022/01/10 09:02:39;;;;;;;;;;;7.90;53.20;;;;;;5067703;28;19909;-69
2022/01/10 09:05:05;;;;;;;;;;;8.00;52.60;;;;;;5061974;28;19939;-66
2022/01/10 09:07:31;;;;;;;;;;;7.90;52.60;;;;;;5048095;28;19960;-66
2022/01/10 09:09:56;;;;;;;;;;;8.00;53.00;;;;;;5035484;28;19954;-66
2022/01/10 09:12:22;;;;;;;;;;;8.10;52.70;;;;;;5035202;28;20297;-72
2022/01/10 09:14:48;;;;;;;;;;;8.10;52.60;;;;;;5034977;28;19917;-67
2022/01/10 09:17:13;;;;;;;;;;;8.00;53.00;;;;;;5035022;28;19909;-73
2022/01/10 09:19:39;;;;;;;;;;;8.00;52.90;;;;;;5035143;28;19992;-69
2022/01/10 09:22:04;;;;;;;;;;;7.90;53.50;;;;;;5034917;28;19909;-74
2022/01/10 09:24:30;;;;;;;;;;;7.80;53.40;;;;;;5034577;28;19963;-67
2022/01/10 09:26:56;;;;;;;;;;;7.80;54.00;;;;;;5035034;28;19909;-74
2022/01/10 09:29:22;;;;;;;;;;;7.90;53.10;;;;;;5034964;28;19960;-67
2022/01/10 09:31:48;;;;;;;;;;;7.90;53.10;;;;;;5035238;28;19948;-72
2022/01/10 09:34:13;;;;;;;;;;;7.90;52.80;;;;;;5034776;28;19957;-71
2022/01/10 09:36:39;;;;;;;;;;;7.90;53.00;;;;;;5035037;28;19913;-68
2022/01/10 09:39:05;;;;;;;;;;;7.90;52.90;;;;;;5034881;28;20365;-65
2022/01/10 09:41:31;;;;;;;;;;;7.90;53.30;;;;;;5034886;28;19984;-63
2022/01/10 09:44:00;;;;;;;;;;;8.00;53.20;;;;;;5034369;28;20282;-68
2022/01/10 09:46:26;;;;;;;;;;;8.20;52.60;;;;;;5034021;28;19916;-62
2022/01/10 09:48:52;;;;;;;;;;;8.30;52.10;;;;;;5034180;28;19913;-65
2022/01/10 09:51:18;;;;;;;;;;;8.20;51.80;;;;;;5034611;28;20253;-64
2022/01/10 09:53:43;;;;;;;;;;;8.40;51.80;;;;;;5034314;28;19917;-63
2022/01/10 09:56:09;;;;;;;;;;;8.50;51.70;;;;;;5034663;28;19913;-66
2022/01/10 09:58:35;;;;;;;;;;;8.50;51.50;;;;;;5034371;28;20376;-64
2022/01/10 10:01:01;;;;;;;;;;;8.40;51.30;;;;;;5034215;28;20012;-64
2022/01/10 10:03:26;;;;;;;;;;;8.50;51.50;;;;;;5034201;28;19956;-66
2022/01/10 10:05:56;;;;;;;;;;;8.60;51.40;;;;;;5034348;28;19916;-62
2022/01/10 10:08:23;;;;;;;;;;;8.60;50.60;;;;;;5051157;28;19912;-63
2022/01/10 10:10:49;;;;;;;;;;;8.60;50.90;;;;;;5063786;28;19920;-65
2022/01/10 10:13:15;;;;;;;;;;;8.70;50.50;;;;;;5072675;28;20003;-65
2022/01/10 10:15:41;;;;;;;;;;;8.50;50.50;;;;;;5054334;28;20012;-65
2022/01/10 10:18:08;;;;;;;;;;;8.50;51.10;;;;;;5052534;28;19909;-63
2022/01/10 10:20:34;;;;;;;;;;;8.40;50.80;;;;;;5052833;28;20300;-65
2022/01/10 10:23:02;;;;;;;;;;;8.60;51.00;;;;;;5053360;28;19909;-66
2022/01/10 10:25:28;;;;;;;;;;;8.50;50.70;;;;;;5053773;28;20383;-65
2022/01/10 10:27:56;;;;;;;;;;;8.50;50.50;;;;;;5054073;28;19908;-64
2022/01/10 10:30:26;;;;;;;;;;;8.70;50.40;;;;;;5054994;28;19909;-65
2022/01/10 10:32:51;;;;;;;;;;;8.90;49.30;;;;;;5065997;28;19991;-66
2022/01/10 10:35:17;;;;;;;;;;;9.00;49.60;;;;;;5065292;28;19917;-64
2022/01/10 10:37:43;;;;;;;;;;;9.10;49.40;;;;;;5061108;28;19913;-65
2022/01/10 10:40:11;;;;;;;;;;;9.10;48.90;;;;;;5053886;28;19918;-66
2022/01/10 10:42:38;;;;;;;;;;;9.20;48.90;;;;;;5053513;28;19924;-63
2022/01/10 10:45:08;;;;;;;;;;;9.40;48.70;;;;;;5053658;28;19919;-67
2022/01/10 10:47:36;;;;;;;;;;;9.50;47.90;;;;;;5053576;28;19909;-65
2022/01/10 10:50:05;;;;;;;;;;;9.60;46.90;;;;;;5053631;28;19909;-66
2022/01/10 10:52:33;;;;;;;;;;;9.50;47.50;;;;;;5053647;28;19909;-65
2022/01/10 10:55:25;;;;;;;;;;;9.30;47.20;;;;;;5053222;28;19921;-68
2022/01/10 10:57:51;;;;;;;;;;;9.20;47.80;;;;;;5048401;28;19908;-66
2022/01/10 11:00:16;;;;;;;;;;;9.20;48.00;;;;;;5053590;28;20280;-65
2022/01/10 11:02:43;;;;;;;;;;;9.20;47.20;;;;;;5053457;28;19909;-65
2022/01/10 11:05:08;;;;;;;;;;;9.40;47.30;;;;;;5053093;28;19909;-66
2022/01/10 11:07:35;;;;;;;;;;;9.30;47.20;;;;;;5053661;28;19915;-68
2022/01/10 11:10:03;;;;;;;;;;;9.10;47.90;;;;;;5053291;28;20272;-65
2022/01/10 11:12:29;;;;;;;;;;;9.20;48.10;;;;;;5053352;28;19909;-64
2022/01/10 11:14:56;;;;;;;;;;;9.20;48.20;;;;;;5035367;28;19917;-67
2022/01/10 11:17:22;;;;;;;;;;;9.20;48.00;;;;;;5053245;28;19913;-65
2022/01/10 11:20:06;;;;;;;;;;;9.30;47.90;;;;;;5053262;28;19909;-65
2022/01/10 11:22:31;;;;;;;;;;;9.40;47.40;;;;;;5053194;28;19909;-67
2022/01/10 11:24:57;;;;;;;;;;;9.70;47.10;;;;;;5053305;28;19963;-66
2022/01/10 11:27:29;;;;;;;;;;;9.80;46.60;;;;;;5053148;28;19970;-64
2022/01/10 11:29:57;;;;;;;;;;;9.80;46.60;;;;;;5053462;28;20003;-65
2022/01/10 11:32:41;;;;;;;;;;;9.60;46.50;;;;;;5056991;28;20311;-68
2022/01/10 11:35:07;;;;;;;;;;;9.60;46.40;;;;;;5057324;28;19921;-69
2022/01/10 11:37:33;;;;;;;;;;;9.60;46.10;;;;;;5057122;28;19955;-68
2022/01/10 11:39:58;;;;;;;;;;;9.70;45.80;;;;;;5057428;28;20361;-68
2022/01/10 11:42:24;;;;;;;;;;;9.70;46.10;;;;;;5057073;28;20063;-68
2022/01/10 11:45:09;;;;;;;;;;;9.70;45.70;;;;;;5057002;28;19935;-67
2022/01/10 11:47:53;;;;;;;;;;;9.50;45.00;;;;;;5057141;28;19908;-67
2022/01/10 11:50:26;;;;;;;;;;;9.70;46.20;;;;;;5057382;28;19932;-68
2022/01/10 11:52:56;;;;;;;;;;;9.90;46.10;;;;;;5057147;28;19916;-67
2022/01/10 11:55:31;;;;;;;;;;;10.00;45.50;;;;;;5056874;28;20370;-67
2022/01/10 11:58:05;;;;;;;;;;;10.00;45.20;;;;;;5056832;28;19909;-68
2022/01/10 12:00:37;;;;;;;;;;;9.90;45.70;;;;;;5057173;28;19913;-66
2022/01/10 12:03:02;;;;;;;;;;;9.80;45.90;;;;;;5046314;28;19972;-68
2022/01/10 12:05:29;;;;;;;;;;;9.80;46.00;;;;;;5074357;28;19932;-67
2022/01/10 12:07:55;;;;;;;;;;;9.90;45.60;;;;;;5074437;28;19909;-65
2022/01/10 12:10:21;;;;;;;;;;;9.90;45.30;;;;;;5067070;28;19935;-67
2022/01/10 12:12:50;;;;;;;;;;;9.80;45.50;;;;;;5072733;28;19912;-67
2022/01/10 12:15:15;;;;;;;;;;;9.80;46.00;;;;;;5060688;28;19921;-64
2022/01/10 12:17:41;;;;;;;;;;;9.80;46.10;;;;;;5056719;28;19932;-66
2022/01/10 12:20:08;;;;;;;;;;;9.80;46.10;;;;;;5038776;28;20289;-66
2022/01/10 12:22:34;;;;;;;;;;;9.90;45.70;;;;;;5055701;28;19908;-64
2022/01/10 12:25:01;;;;;;;;;;;9.60;45.50;;;;;;5038050;28;19948;-65
2022/01/10 12:27:27;;;;;;;;;;;9.80;45.60;;;;;;5055374;28;19915;-65
2022/01/10 12:29:52;;;;;;;;;;;9.90;45.90;;;;;;5052735;28;20008;-69
2022/01/10 12:32:18;;;;;;;;;;;9.80;46.10;;;;;;5052949;28;20047;-67
2022/01/10 12:34:45;;;;;;;;;;;9.90;46.10;;;;;;5037541;28;20287;-67
2022/01/10 12:37:11;;;;;;;;;;;9.90;45.60;;;;;;5056223;28;20316;-69
2022/01/10 12:39:37;;;;;;;;;;;9.90;45.30;;;;;;5053492;28;19944;-67
2022/01/10 12:42:03;;;;;;;;;;;9.70;46.10;;;;;;5056412;28;20418;-69
2022/01/10 12:44:29;;;;;;;;;;;9.80;46.30;;;;;;5056655;28;19921;-70
2022/01/10 12:46:54;;;;;;;;;;;9.80;46.20;;;;;;5055580;28;19913;-73
2022/01/10 12:49:20;;;;;;;;;;;9.70;46.60;;;;;;5055737;28;19912;-68
2022/01/10 12:51:47;;;;;;;;;;;9.80;46.70;;;;;;5055410;28;19952;-65
2022/01/10 12:54:17;;;;;;;;;;;9.70;46.40;;;;;;5055963;28;20023;-72
2022/01/10 12:56:43;;;;;;;;;;;9.70;46.70;;;;;;5055991;28;19931;-72
2022/01/10 12:59:16;;;;;;;;;;;9.60;46.00;;;;;;5055048;28;19988;-69
2022/01/10 13:01:42;;;;;;;;;;;9.50;46.50;;;;;;5055252;28;19959;-66
2022/01/10 13:04:07;;;;;;;;;;;9.40;46.50;;;;;;5054997;28;19971;-70
2022/01/10 13:06:41;;;;;;;;;;;9.50;46.60;;;;;;5055291;28;20280;-67
2022/01/10 13:09:08;;;;;;;;;;;9.50;46.50;;;;;;5055397;28;19913;-68
2022/01/10 13:11:44;;;;;;;;;;;9.50;46.10;;;;;;5055170;28;20000;-68
2022/01/10 13:14:11;;;;;;;;;;;9.50;46.10;;;;;;5055301;28;19936;-70
2022/01/10 13:16:37;;;;;;;;;;;9.60;46.60;;;;;;5055362;28;20331;-68
2022/01/10 13:19:04;;;;;;;;;;;9.60;47.10;;;;;;5055203;28;20280;-66
2022/01/10 13:21:43;;;;;;;;;;;9.50;46.80;;;;;;5055368;28;19909;-65
2022/01/10 13:24:13;;;;;;;;;;;9.50;47.20;;;;;;5055375;28;20395;-71
2022/01/10 13:26:58;;;;;;;;;;;9.40;46.40;;;;;;5054983;28;19991;-63
2022/01/10 13:29:32;;;;;;;;;;;9.60;46.80;;;;;;5054986;28;19912;-68
2022/01/10 13:32:10;;;;;;;;;;;9.50;47.00;;;;;;5055293;28;19932;-69
2022/01/10 13:34:35;;;;;;;;;;;9.60;46.50;;;;;;5054924;28;19916;-68
2022/01/10 13:37:02;;;;;;;;;;;9.60;47.00;;;;;;5054993;28;20295;-69
2022/01/10 13:39:28;;;;;;;;;;;9.40;47.50;;;;;;5054885;28;19909;-67
2022/01/10 13:42:01;;;;;;;;;;;9.30;47.00;;;;;;5055011;28;19986;-66
2022/01/10 13:44:27;;;;;;;;;;;9.30;46.60;;;;;;5054958;28;19963;-68
2022/01/10 13:47:05;;;;;;;;;;;9.50;46.20;;;;;;5054573;28;19967;-65
2022/01/10 13:49:33;;;;;;;;;;;9.60;46.70;;;;;;5054696;28;19992;-66
2022/01/10 13:52:08;;;;;;;;;;;9.50;46.30;;;;;;5054543;28;20004;-72
2022/01/10 13:54:34;;;;;;;;;;;9.50;46.40;;;;;;5053609;28;20357;-68
2022/01/10 13:57:18;;;;;;;;;;;9.30;47.50;;;;;;5054782;28;20002;-73
2022/01/10 13:59:44;;;;;;;;;;;9.50;46.70;;;;;;5060692;28;19980;-66
2022/01/10 14:02:12;;;;;;;;;;;9.50;47.00;;;;;;5066750;28;19919;-69
2022/01/10 14:04:39;;;;;;;;;;;9.40;46.90;;;;;;5064170;28;20257;-68
2022/01/10 14:07:17;;;;;;;;;;;9.50;46.70;;;;;;5056683;28;19908;-68
2022/01/10 14:09:44;;;;;;;;;;;9.50;45.90;;;;;;5054193;28;20284;-68
2022/01/10 14:12:10;;;;;;;;;;;9.40;49.10;;;;;;5053935;28;19916;-65
2022/01/10 14:14:36;;;;;;;;;;;9.90;62.80;;;;;;5053239;28;19997;-67
2022/01/10 14:17:01;;;;;;;;;;;10.10;46.90;;;;;;5053567;28;19912;-63
2022/01/10 14:19:27;;;;;;;;;;;9.80;45.60;;;;;;5053633;28;19915;-71
2022/01/10 14:21:53;;;;;;;;;;;9.60;46.00;;;;;;5053405;28;20004;-67
2022/01/10 14:24:22;;;;;;;;;;;9.40;46.40;;;;;;5052741;28;19908;-71
2022/01/10 14:26:48;;;;;;;;;;;9.30;46.90;;;;;;5053364;28;19909;-74
2022/01/10 14:29:13;;;;;;;;;;;9.20;47.20;;;;;;5040035;28;19958;-75
2022/01/10 14:31:39;;;;;;;;;;;9.20;47.10;;;;;;5069219;28;20375;-73
2022/01/10 14:34:05;;;;;;;;;;;9.30;46.70;;;;;;5069952;28;20027;-74